Time;durP1;ratioP1;P1;durP2;ratioP2;P2;SDS_P1;SDS_P2;PMS_P1;PMS_P2;Temp;Humidity;BMP_temperature;BMP_pressure;BME280_temperature;BME280_humidity;BME280_pressure;Samples;Min_cycle;Max_cycle;Signal;HPM_P1;HPM_P2
2022/01/01 00:01:28;;;;;;;37.60;30.25;;;;;;;;;;5058118;28;20036;-55
2022/01/01 00:03:53;;;;;;;44.88;31.33;;;;;;;;;;5055562;28;20055;-57
2022/01/01 00:06:19;;;;;;;47.22;35.20;;;;;;;;;;5057856;28;20126;-59
2022/01/01 00:08:45;;;;;;;48.80;36.63;;;;;;;;;;5054481;28;20458;-61
2022/01/01 00:11:12;;;;;;;48.97;36.40;;;;;;;;;;5053398;28;20108;-56
2022/01/01 00:13:37;;;;;;;42.05;32.10;;;;;;;;;;5056781;28;20040;-59
2022/01/01 00:16:09;;;;;;;40.85;32.15;;;;;;;;;;5054151;28;20133;-58
2022/01/01 00:18:35;;;;;;;43.42;32.08;;;;;;;;;;5057276;28;20040;-58
2022/01/01 00:21:00;;;;;;;39.63;29.45;;;;;;;;;;5053174;28;20446;-56
2022/01/01 00:23:26;;;;;;;36.17;28.52;;;;;;;;;;5054545;28;20045;-56
2022/01/01 00:25:52;;;;;;;41.60;27.42;;;;;;;;;;5057438;28;20095;-57
2022/01/01 00:28:17;;;;;;;34.47;24.83;;;;;;;;;;5051513;28;20166;-58
2022/01/01 00:30:43;;;;;;;32.45;26.17;;;;;;;;;;5058371;28;20113;-57
2022/01/01 00:33:09;;;;;;;35.88;25.17;;;;;;;;;;5054774;28;20064;-59
2022/01/01 00:35:34;;;;;;;31.63;23.65;;;;;;;;;;5054519;28;20121;-59
2022/01/01 00:38:00;;;;;;;29.45;23.67;;;;;;;;;;5057708;28;20090;-60
2022/01/01 00:40:26;;;;;;;30.50;22.02;;;;;;;;;;5050409;28;20125;-55
2022/01/01 00:42:51;;;;;;;28.27;21.90;;;;;;;;;;5058316;28;20146;-57
2022/01/01 00:45:17;;;;;;;26.25;19.45;;;;;;;;;;5052010;28;20154;-60
2022/01/01 00:47:43;;;;;;;29.33;23.42;;;;;;;;;;5051156;28;20386;-55
2022/01/01 00:50:09;;;;;;;28.80;22.13;;;;;;;;;;5056953;28;20147;-55
2022/01/01 00:52:34;;;;;;;32.10;22.15;;;;;;;;;;5051168;28;20055;-57
2022/01/01 00:55:00;;;;;;;25.67;19.25;;;;;;;;;;5056398;28;20110;-59
2022/01/01 00:57:26;;;;;;;24.58;19.90;;;;;;;;;;5052908;28;20126;-58
2022/01/01 00:59:52;;;;;;;24.80;18.00;;;;;;;;;;5051964;28;20413;-54
2022/01/01 01:02:17;;;;;;;29.65;18.58;;;;;;;;;;5057068;28;20322;-58
2022/01/01 01:04:43;;;;;;;24.25;15.63;;;;;;;;;;5051286;28;20457;-57
2022/01/01 01:07:12;;;;;;;23.15;17.08;;;;;;;;;;5055339;28;20376;-58
2022/01/01 01:09:37;;;;;;;23.02;15.70;;;;;;;;;;5053324;28;20045;-61
2022/01/01 01:12:03;;;;;;;20.88;15.77;;;;;;;;;;5053522;28;20125;-60
2022/01/01 01:14:39;;;;;;;21.70;16.52;;;;;;;;;;5056528;28;20403;-58
2022/01/01 01:17:04;;;;;;;19.42;16.45;;;;;;;;;;5050955;28;20609;-58
2022/01/01 01:19:30;;;;;;;23.30;16.13;;;;;;;;;;5055792;28;20128;-57
2022/01/01 01:21:57;;;;;;;21.23;15.15;;;;;;;;;;5053918;28;20154;-57
2022/01/01 01:24:24;;;;;;;20.05;15.48;;;;;;;;;;5052295;28;20045;-56
2022/01/01 01:26:51;;;;;;;22.98;15.65;;;;;;;;;;5055652;28;20049;-57
2022/01/01 01:29:18;;;;;;;23.27;15.82;;;;;;;;;;5050444;28;20428;-60
2022/01/01 01:31:44;;;;;;;18.52;13.93;;;;;;;;;;5056575;28;20048;-58
2022/01/01 01:34:10;;;;;;;20.00;15.23;;;;;;;;;;5052983;28;20416;-59
2022/01/01 01:36:35;;;;;;;19.75;14.30;;;;;;;;;;5052093;28;20182;-57
2022/01/01 01:39:01;;;;;;;22.70;15.73;;;;;;;;;;5054278;28;20456;-57
2022/01/01 01:41:30;;;;;;;20.65;14.40;;;;;;;;;;5049319;28;20065;-56
2022/01/01 01:43:58;;;;;;;18.63;14.25;;;;;;;;;;5056997;28;20045;-59
2022/01/01 01:46:25;;;;;;;19.73;14.93;;;;;;;;;;5050348;28;20420;-57
2022/01/01 01:48:50;;;;;;;20.98;15.35;;;;;;;;;;5054358;28;20048;-59
2022/01/01 01:51:16;;;;;;;18.17;14.75;;;;;;;;;;5054092;28;20340;-58
2022/01/01 01:53:42;;;;;;;20.45;14.48;;;;;;;;;;5049431;28;20126;-57
2022/01/01 01:56:08;;;;;;;19.90;14.23;;;;;;;;;;5054369;28;20090;-58
2022/01/01 01:58:33;;;;;;;19.50;14.15;;;;;;;;;;5050565;28;20076;-56
2022/01/01 02:01:20;;;;;;;18.88;14.77;;;;;;;;;;5054057;28;20032;-58
2022/01/01 02:03:46;;;;;;;20.33;15.15;;;;;;;;;;5052089;28;20447;-58
2022/01/01 02:06:12;;;;;;;21.13;13.70;;;;;;;;;;5050809;28;20040;-58
2022/01/01 02:08:38;;;;;;;18.17;13.82;;;;;;;;;;5053854;28;20040;-55
2022/01/01 02:11:04;;;;;;;16.92;13.75;;;;;;;;;;5052247;28;20120;-56
2022/01/01 02:13:35;;;;;;;20.70;14.25;;;;;;;;;;5056101;28;20399;-58
2022/01/01 02:18:48;;;;;;;;;;;;;;;;;;5058041;28;20040;-58
2022/01/01 02:21:14;;;;;;;23.50;15.48;;;;;;;;;;5054075;28;20421;-58
2022/01/01 02:23:45;;;;;;;21.42;15.35;;;;;;;;;;5049407;28;20033;-58
2022/01/01 02:26:12;;;;;;;19.77;15.23;;;;;;;;;;5053927;28;20052;-59
2022/01/01 02:28:56;;;;;;;20.85;14.20;;;;;;;;;;5052384;28;20091;-60
2022/01/01 02:31:22;;;;;;;19.13;15.40;;;;;;;;;;5051608;28;20040;-57
2022/01/01 02:33:48;;;;;;;18.38;15.05;;;;;;;;;;5053343;28;20903;-59
2022/01/01 02:36:13;;;;;;;19.67;14.93;;;;;;;;;;5049531;28;20130;-58
2022/01/01 02:38:39;;;;;;;23.05;15.60;;;;;;;;;;5054532;28;20494;-55
2022/01/01 02:41:05;;;;;;;20.05;15.95;;;;;;;;;;5052439;28;20036;-59
2022/01/01 02:43:31;;;;;;;20.50;15.13;;;;;;;;;;5051754;28;20525;-58
2022/01/01 02:45:58;;;;;;;19.60;15.43;;;;;;;;;;5052750;28;20036;-55
2022/01/01 02:48:23;;;;;;;19.50;15.27;;;;;;;;;;5048392;28;20039;-56
2022/01/01 02:50:52;;;;;;;20.52;15.15;;;;;;;;;;5055902;28;20041;-56
2022/01/01 02:53:18;;;;;;;20.38;14.57;;;;;;;;;;5049990;28;20564;-56
2022/01/01 02:55:45;;;;;;;19.95;14.05;;;;;;;;;;5055921;28;20046;-55
2022/01/01 02:58:11;;;;;;;23.75;14.70;;;;;;;;;;5053158;28;20059;-55
2022/01/01 03:00:38;;;;;;;19.75;14.07;;;;;;;;;;5048072;28;20040;-55
2022/01/01 03:03:04;;;;;;;20.85;14.10;;;;;;;;;;5056328;28;20496;-58
2022/01/01 03:05:31;;;;;;;17.17;13.23;;;;;;;;;;5051312;28;20055;-53
2022/01/01 03:07:57;;;;;;;20.30;14.90;;;;;;;;;;5053567;28;20037;-57
2022/01/01 03:10:23;;;;;;;18.63;14.07;;;;;;;;;;5052523;28;20068;-57
2022/01/01 03:12:49;;;;;;;20.42;14.68;;;;;;;;;;5049109;28;20052;-57
2022/01/01 03:15:14;;;;;;;21.08;14.57;;;;;;;;;;5056055;28;20065;-55
2022/01/01 03:17:40;;;;;;;20.58;14.38;;;;;;;;;;5053123;28;20506;-56
2022/01/01 03:20:06;;;;;;;22.23;14.05;;;;;;;;;;5057689;28;20151;-55
2022/01/01 03:22:32;;;;;;;20.35;14.95;;;;;;;;;;5057137;28;20036;-56
2022/01/01 03:24:58;;;;;;;17.55;14.15;;;;;;;;;;5054757;28;20037;-55
2022/01/01 03:27:24;;;;;;;18.60;13.00;;;;;;;;;;5055742;28;20114;-55
2022/01/01 03:29:49;;;;;;;19.48;13.68;;;;;;;;;;5054588;28;20476;-52
2022/01/01 03:32:15;;;;;;;22.33;13.10;;;;;;;;;;5057778;28;20064;-57
2022/01/01 03:34:42;;;;;;;22.85;13.98;;;;;;;;;;5056294;28;20800;-55
2022/01/01 03:37:08;;;;;;;19.98;13.98;;;;;;;;;;5054551;28;20033;-57
2022/01/01 03:39:34;;;;;;;19.58;12.68;;;;;;;;;;5059053;28;20567;-59
2022/01/01 03:41:59;;;;;;;19.02;12.38;;;;;;;;;;5054994;28;20036;-55
2022/01/01 03:44:25;;;;;;;17.45;11.95;;;;;;;;;;5058809;28;20343;-58
2022/01/01 03:46:52;;;;;;;20.73;12.57;;;;;;;;;;5055740;28;20115;-56
2022/01/01 03:49:18;;;;;;;15.02;12.20;;;;;;;;;;5054425;28;20041;-55
2022/01/01 03:51:43;;;;;;;17.55;11.98;;;;;;;;;;5058852;28;20068;-57
2022/01/01 03:54:11;;;;;;;18.40;12.35;;;;;;;;;;5054148;28;20399;-56
2022/01/01 03:56:38;;;;;;;16.23;12.00;;;;;;;;;;5054818;28;20098;-58
2022/01/01 03:59:03;;;;;;;14.77;10.57;;;;;;;;;;5056505;28;20356;-59
2022/01/01 04:01:29;;;;;;;20.38;11.48;;;;;;;;;;5051574;28;20437;-59
2022/01/01 04:03:55;;;;;;;19.33;12.32;;;;;;;;;;5059138;28;21111;-53
2022/01/01 04:06:20;;;;;;;23.50;11.75;;;;;;;;;;5053511;28;20127;-59
2022/01/01 04:08:46;;;;;;;23.38;12.40;;;;;;;;;;5055087;28;20496;-57
2022/01/01 04:11:12;;;;;;;15.02;10.43;;;;;;;;;;5054526;28;20121;-54
2022/01/01 04:13:37;;;;;;;19.10;11.25;;;;;;;;;;5049598;28;20122;-59
2022/01/01 04:16:03;;;;;;;15.52;11.50;;;;;;;;;;5057538;28;20136;-59
2022/01/01 04:18:38;;;;;;;19.45;11.65;;;;;;;;;;5051852;28;20142;-59
2022/01/01 04:21:08;;;;;;;18.67;10.80;;;;;;;;;;5058117;28;20563;-61
2022/01/01 04:23:34;;;;;;;15.88;10.70;;;;;;;;;;5052904;28;20047;-60
2022/01/01 04:26:00;;;;;;;20.90;11.43;;;;;;;;;;5053045;28;20037;-58
2022/01/01 04:28:25;;;;;;;17.98;11.40;;;;;;;;;;5055904;28;20120;-59
2022/01/01 04:30:51;;;;;;;18.70;11.70;;;;;;;;;;5052178;28;20136;-56
2022/01/01 04:33:17;;;;;;;21.17;12.05;;;;;;;;;;5054826;28;20057;-57
2022/01/01 04:35:42;;;;;;;17.88;10.63;;;;;;;;;;5053756;28;20037;-58
2022/01/01 04:38:20;;;;;;;16.55;11.25;;;;;;;;;;5051321;28;20068;-59
2022/01/01 04:40:45;;;;;;;19.67;11.60;;;;;;;;;;5055587;28;20037;-59
2022/01/01 04:43:11;;;;;;;19.90;11.13;;;;;;;;;;5051047;28;20113;-59
2022/01/01 04:45:37;;;;;;;15.80;11.35;;;;;;;;;;5055322;28;20065;-60
2022/01/01 04:48:02;;;;;;;16.10;11.90;;;;;;;;;;5054136;28;20064;-56
2022/01/01 04:50:28;;;;;;;18.98;10.82;;;;;;;;;;5053202;28;20530;-57
2022/01/01 04:52:56;;;;;;;19.48;10.95;;;;;;;;;;5056542;28;20136;-59
2022/01/01 04:55:23;;;;;;;17.80;11.27;;;;;;;;;;5050278;28;20464;-57
2022/01/01 04:57:49;;;;;;;18.42;11.80;;;;;;;;;;5057134;28;20044;-57
2022/01/01 05:00:15;;;;;;;20.98;12.77;;;;;;;;;;5052623;28;20072;-57
2022/01/01 05:02:40;;;;;;;20.08;12.10;;;;;;;;;;5053026;28;20368;-57
2022/01/01 05:05:07;;;;;;;22.80;11.80;;;;;;;;;;5054877;28;20124;-56
2022/01/01 05:07:32;;;;;;;19.83;12.13;;;;;;;;;;5048865;28;20666;-55
2022/01/01 05:09:59;;;;;;;17.05;12.20;;;;;;;;;;5015426;28;1154457;-56
2022/01/01 05:12:25;;;;;;;18.77;11.65;;;;;;;;;;5053316;28;20705;-56
2022/01/01 05:14:51;;;;;;;17.90;12.05;;;;;;;;;;5055647;28;20041;-57
2022/01/01 05:17:18;;;;;;;20.95;12.43;;;;;;;;;;5056133;28;20107;-56
2022/01/01 05:19:43;;;;;;;22.08;12.38;;;;;;;;;;5050534;28;20037;-58
2022/01/01 05:22:09;;;;;;;22.58;12.73;;;;;;;;;;5058577;28;20433;-59
2022/01/01 05:24:35;;;;;;;22.60;13.00;;;;;;;;;;5053177;28;20044;-55
2022/01/01 05:27:01;;;;;;;20.70;13.10;;;;;;;;;;5050944;28;20048;-60
2022/01/01 05:29:26;;;;;;;23.70;13.70;;;;;;;;;;5055321;28;20067;-55
2022/01/01 05:31:52;;;;;;;24.30;13.65;;;;;;;;;;5051974;28;20124;-59
2022/01/01 05:34:18;;;;;;;27.63;15.40;;;;;;;;;;5054430;28;20056;-54
2022/01/01 05:36:44;;;;;;;24.00;13.98;;;;;;;;;;5052776;28;20512;-58
2022/01/01 05:39:10;;;;;;;28.13;15.15;;;;;;;;;;5051188;28;20485;-57
2022/01/01 05:41:35;;;;;;;25.42;15.85;;;;;;;;;;5054980;28;20812;-57
2022/01/01 05:44:02;;;;;;;26.08;15.05;;;;;;;;;;5052166;28;20063;-54
2022/01/01 05:46:30;;;;;;;25.65;14.27;;;;;;;;;;5055051;28;20137;-59
2022/01/01 05:48:55;;;;;;;24.45;13.57;;;;;;;;;;5052958;28;20460;-55
2022/01/01 05:51:21;;;;;;;23.10;13.82;;;;;;;;;;5052318;28;20059;-59
2022/01/01 05:53:47;;;;;;;23.98;13.75;;;;;;;;;;5054323;28;20041;-56
2022/01/01 05:56:12;;;;;;;18.15;12.82;;;;;;;;;;5050552;28;20360;-59
2022/01/01 05:58:38;;;;;;;21.10;12.95;;;;;;;;;;5055107;28;20056;-55
2022/01/01 06:01:04;;;;;;;24.80;12.88;;;;;;;;;;5053567;28;20067;-57
2022/01/01 06:03:31;;;;;;;21.83;12.55;;;;;;;;;;5052479;28;20089;-53
2022/01/01 06:05:57;;;;;;;23.27;13.13;;;;;;;;;;5054979;28;20123;-56
2022/01/01 06:08:24;;;;;;;23.55;12.68;;;;;;;;;;5049546;28;20118;-58
2022/01/01 06:10:50;;;;;;;19.77;11.95;;;;;;;;;;5056576;28;20072;-59
2022/01/01 06:13:15;;;;;;;22.45;12.45;;;;;;;;;;5052154;28;20069;-60
2022/01/01 06:15:43;;;;;;;22.73;13.52;;;;;;;;;;5052428;28;20064;-53
2022/01/01 06:18:08;;;;;;;24.25;12.38;;;;;;;;;;5053909;28;20161;-59
2022/01/01 06:20:34;;;;;;;21.70;12.52;;;;;;;;;;5049270;28;20121;-56
2022/01/01 06:23:01;;;;;;;20.75;12.68;;;;;;;;;;5057024;28;20086;-57
2022/01/01 06:25:27;;;;;;;27.67;12.70;;;;;;;;;;5051520;28;20097;-55
2022/01/01 06:27:53;;;;;;;23.83;13.13;;;;;;;;;;5054032;28;20488;-60
2022/01/01 06:30:19;;;;;;;21.23;13.07;;;;;;;;;;5053825;28;20065;-60
2022/01/01 06:32:45;;;;;;;19.05;12.15;;;;;;;;;;5049311;28;20037;-55
2022/01/01 06:35:11;;;;;;;22.88;12.90;;;;;;;;;;5056799;28;20044;-60
2022/01/01 06:37:36;;;;;;;21.42;12.55;;;;;;;;;;5051134;28;20608;-57
2022/01/01 06:40:02;;;;;;;19.92;11.60;;;;;;;;;;5054943;28;20499;-59
2022/01/01 06:42:28;;;;;;;16.85;11.80;;;;;;;;;;5053469;28;20670;-54
2022/01/01 06:44:54;;;;;;;22.77;13.07;;;;;;;;;;5050130;28;20106;-52
2022/01/01 06:47:19;;;;;;;19.10;11.43;;;;;;;;;;5053118;28;20511;-56
2022/01/01 06:49:45;;;;;;;23.70;12.25;;;;;;;;;;5051094;28;20061;-53
2022/01/01 06:52:11;;;;;;;24.10;11.98;;;;;;;;;;5052860;28;20110;-55
2022/01/01 06:54:36;;;;;;;22.02;11.88;;;;;;;;;;5053229;28;20102;-55
2022/01/01 06:57:02;;;;;;;21.48;12.57;;;;;;;;;;5051828;28;20788;-59
2022/01/01 06:59:28;;;;;;;19.55;11.57;;;;;;;;;;5053112;28;20479;-60
2022/01/01 07:01:54;;;;;;;22.73;12.32;;;;;;;;;;5052189;28;20068;-58
2022/01/01 07:04:19;;;;;;;20.52;11.85;;;;;;;;;;5050999;28;20064;-56
2022/01/01 07:06:45;;;;;;;27.35;14.07;;;;;;;;;;5053096;28;20069;-57
2022/01/01 07:09:12;;;;;;;21.48;12.27;;;;;;;;;;5049267;28;20555;-59
2022/01/01 07:11:38;;;;;;;21.42;11.07;;;;;;;;;;5053936;28;20528;-52
2022/01/01 07:14:03;;;;;;;22.55;11.10;;;;;;;;;;5051989;28;20121;-60
2022/01/01 07:16:29;;;;;;;22.98;12.45;;;;;;;;;;5051676;28;20059;-57
2022/01/01 07:18:55;;;;;;;19.33;11.43;;;;;;;;;;5053238;28;20139;-59
2022/01/01 07:21:20;;;;;;;24.13;12.18;;;;;;;;;;5048594;28;20053;-55
2022/01/01 07:23:46;;;;;;;20.90;11.73;;;;;;;;;;5054783;28;20065;-60
2022/01/01 07:26:12;;;;;;;22.92;12.77;;;;;;;;;;5051111;28;20508;-56
2022/01/01 07:28:37;;;;;;;26.48;12.52;;;;;;;;;;5051471;28;20060;-59
2022/01/01 07:31:03;;;;;;;22.27;12.48;;;;;;;;;;5053491;28;20796;-57
2022/01/01 07:33:29;;;;;;;22.30;13.70;;;;;;;;;;5048511;28;20150;-60
2022/01/01 07:35:55;;;;;;;23.58;12.10;;;;;;;;;;5056188;28;20558;-59
2022/01/01 07:38:22;;;;;;;19.27;11.63;;;;;;;;;;5050160;28;20052;-54
2022/01/01 07:40:48;;;;;;;21.17;12.48;;;;;;;;;;5052675;28;20082;-55
2022/01/01 07:43:15;;;;;;;20.17;11.70;;;;;;;;;;5053064;28;20044;-58
2022/01/01 07:45:42;;;;;;;21.27;12.70;;;;;;;;;;5048024;28;20099;-59
2022/01/01 07:48:08;;;;;;;20.88;11.45;;;;;;;;;;5055270;28;20043;-55
2022/01/01 07:50:34;;;;;;;20.70;11.65;;;;;;;;;;5049570;28;20056;-59
2022/01/01 07:53:00;;;;;;;21.30;11.93;;;;;;;;;;5052118;28;20040;-57
2022/01/01 07:55:26;;;;;;;24.23;12.50;;;;;;;;;;5052330;28;20117;-57
2022/01/01 07:57:52;;;;;;;21.27;12.02;;;;;;;;;;5049369;28;20073;-60
2022/01/01 08:00:18;;;;;;;17.48;10.73;;;;;;;;;;5055239;28;20450;-59
2022/01/01 08:02:45;;;;;;;24.13;12.40;;;;;;;;;;5051112;28;20376;-57
2022/01/01 08:05:12;;;;;;;27.10;11.65;;;;;;;;;;5057118;28;20044;-54
2022/01/01 08:07:38;;;;;;;18.83;11.27;;;;;;;;;;5055337;28;20049;-55
2022/01/01 08:10:06;;;;;;;18.30;11.23;;;;;;;;;;5054262;28;20085;-58
2022/01/01 08:12:31;;;;;;;22.48;11.80;;;;;;;;;;5055855;28;20359;-55
2022/01/01 08:14:57;;;;;;;21.23;13.63;;;;;;;;;;5054514;28;20132;-57
2022/01/01 08:17:24;;;;;;;25.25;12.32;;;;;;;;;;5057597;28;20056;-59
2022/01/01 08:19:50;;;;;;;25.48;13.05;;;;;;;;;;5053898;28;20037;-58
2022/01/01 08:22:16;;;;;;;19.77;12.73;;;;;;;;;;5053898;28;20403;-57
2022/01/01 08:24:42;;;;;;;21.95;12.82;;;;;;;;;;5057432;28;20026;-56
2022/01/01 08:27:08;;;;;;;25.02;12.75;;;;;;;;;;5053436;28;20123;-56
2022/01/01 08:29:34;;;;;;;21.08;12.52;;;;;;;;;;5057864;28;20559;-52
2022/01/01 08:32:00;;;;;;;19.77;11.63;;;;;;;;;;5055750;28;20052;-57
2022/01/01 08:34:26;;;;;;;19.23;12.15;;;;;;;;;;5054843;28;20068;-53
2022/01/01 08:36:52;;;;;;;24.05;14.60;;;;;;;;;;5058012;28;20065;-56
2022/01/01 08:39:18;;;;;;;24.73;12.45;;;;;;;;;;5053392;28;20037;-55
2022/01/01 08:41:45;;;;;;;24.15;12.45;;;;;;;;;;5054876;28;20553;-58
2022/01/01 08:44:12;;;;;;;20.52;12.82;;;;;;;;;;5055213;28;20610;-58
2022/01/01 08:46:38;;;;;;;20.63;12.77;;;;;;;;;;5050671;28;20743;-57
2022/01/01 08:49:05;;;;;;;25.25;12.90;;;;;;;;;;5057575;28;20067;-61
2022/01/01 08:51:33;;;;;;;23.05;13.55;;;;;;;;;;5053049;28;20048;-55
2022/01/01 08:53:59;;;;;;;21.15;12.45;;;;;;;;;;5058059;28;20040;-59
2022/01/01 08:56:25;;;;;;;25.33;12.75;;;;;;;;;;5054102;28;20558;-58
2022/01/01 08:58:50;;;;;;;19.58;12.73;;;;;;;;;;5051762;28;20036;-60
2022/01/01 09:01:16;;;;;;;20.23;12.48;;;;;;;;;;5057114;28;20842;-57
2022/01/01 09:03:42;;;;;;;22.20;12.32;;;;;;;;;;5051598;28;20076;-58
2022/01/01 09:06:08;;;;;;;25.38;13.68;;;;;;;;;;5055487;28;20048;-59
2022/01/01 09:08:39;;;;;;;27.45;14.18;;;;;;;;;;5053345;28;20411;-58
2022/01/01 09:11:05;;;;;;;24.58;12.48;;;;;;;;;;5052447;28;20116;-58
2022/01/01 09:13:31;;;;;;;20.20;12.57;;;;;;;;;;5053652;28;20036;-58
2022/01/01 09:15:57;;;;;;;25.38;12.63;;;;;;;;;;5052836;28;20132;-55
2022/01/01 09:18:22;;;;;;;24.80;13.23;;;;;;;;;;5055548;28;20120;-56
2022/01/01 09:20:48;;;;;;;18.88;11.75;;;;;;;;;;5053817;28;20528;-58
2022/01/01 09:23:14;;;;;;;24.42;12.95;;;;;;;;;;5051689;28;20040;-57
2022/01/01 09:25:41;;;;;;;24.42;13.23;;;;;;;;;;5055653;28;20497;-59
2022/01/01 09:28:07;;;;;;;22.30;12.88;;;;;;;;;;5052401;28;20048;-55
2022/01/01 09:30:33;;;;;;;21.80;12.27;;;;;;;;;;5055686;28;20403;-58
2022/01/01 09:32:58;;;;;;;24.38;13.70;;;;;;;;;;5054363;28;20044;-57
2022/01/01 09:35:24;;;;;;;24.30;13.43;;;;;;;;;;5052643;28;20198;-58
2022/01/01 09:37:50;;;;;;;28.40;13.20;;;;;;;;;;5055672;28;20127;-56
2022/01/01 09:40:16;;;;;;;27.65;14.20;;;;;;;;;;5050742;28;20118;-57
2022/01/01 09:42:43;;;;;;;21.73;13.25;;;;;;;;;;5056356;28;20044;-58
2022/01/01 09:45:09;;;;;;;27.40;14.38;;;;;;;;;;5053723;28;20045;-54
2022/01/01 09:47:37;;;;;;;27.00;13.20;;;;;;;;;;5052931;28;20040;-59
2022/01/01 09:50:05;;;;;;;26.67;15.52;;;;;;;;;;5054079;28;20503;-57
2022/01/01 09:52:32;;;;;;;38.50;17.58;;;;;;;;;;5051452;28;20122;-56
2022/01/01 09:54:58;;;;;;;29.05;17.15;;;;;;;;;;5058049;28;20040;-60
2022/01/01 09:57:24;;;;;;;25.45;14.10;;;;;;;;;;5052211;28;20059;-56
2022/01/01 09:59:50;;;;;;;29.08;15.25;;;;;;;;;;5054707;28;20060;-57
2022/01/01 10:02:15;;;;;;;36.42;17.05;;;;;;;;;;5056077;28;20145;-56
2022/01/01 10:05:04;;;;;;;36.95;18.35;;;;;;;;;;5048666;28;20788;-56
2022/01/01 10:07:29;;;;;;;27.88;15.15;;;;;;;;;;5054999;28;20115;-60
2022/01/01 10:09:55;;;;;;;26.65;16.83;;;;;;;;;;5052561;28;20476;-54
2022/01/01 10:12:37;;;;;;;28.33;15.30;;;;;;;;;;5050311;28;20134;-52
2022/01/01 10:15:06;;;;;;;26.73;14.82;;;;;;;;;;5051436;28;20044;-57
2022/01/01 10:17:32;;;;;;;33.72;17.65;;;;;;;;;;5049457;28;20036;-57
2022/01/01 10:19:58;;;;;;;30.05;16.75;;;;;;;;;;5050181;28;20060;-56
2022/01/01 10:22:24;;;;;;;26.05;14.00;;;;;;;;;;5049284;28;20129;-56
2022/01/01 10:27:54;;;;;;;27.48;14.70;;;;;;;;;;5053305;28;20064;-56
2022/01/01 10:30:23;;;;;;;25.55;14.73;;;;;;;;;;5049953;28;20045;-56
2022/01/01 10:33:13;;;;;;;26.40;14.77;;;;;;;;;;5052941;28;20033;-58
2022/01/01 10:35:42;;;;;;;27.35;14.05;;;;;;;;;;5046958;28;20052;-54
2022/01/01 10:38:13;;;;;;;22.13;13.27;;;;;;;;;;5055807;28;20086;-59
2022/01/01 10:40:39;;;;;;;29.15;14.55;;;;;;;;;;5048398;28;20373;-54
2022/01/01 10:43:05;;;;;;;29.42;15.55;;;;;;;;;;5054152;28;20122;-55
2022/01/01 10:45:33;;;;;;;31.63;15.98;;;;;;;;;;5052130;28;20403;-52
2022/01/01 10:48:40;;;;;;;24.95;14.88;;;;;;;;;;5051002;28;20090;-55
2022/01/01 10:51:07;;;;;;;26.83;14.77;;;;;;;;;;5051843;28;20083;-59
2022/01/01 10:53:34;;;;;;;33.05;15.18;;;;;;;;;;5048854;28;20408;-58
2022/01/01 10:56:01;;;;;;;24.42;14.98;;;;;;;;;;5056484;28;20033;-55
2022/01/01 10:58:31;;;;;;;25.13;14.40;;;;;;;;;;5050870;28;20526;-58
2022/01/01 11:01:02;;;;;;;24.38;13.13;;;;;;;;;;5053863;28;20040;-57
2022/01/01 11:03:28;;;;;;;24.88;13.32;;;;;;;;;;5051621;28;20451;-56
2022/01/01 11:06:15;;;;;;;22.40;13.48;;;;;;;;;;5048318;28;20754;-56
2022/01/01 11:08:43;;;;;;;22.10;13.38;;;;;;;;;;5050672;28;20045;-57
2022/01/01 11:11:10;;;;;;;27.42;13.73;;;;;;;;;;5049829;28;20193;-59
2022/01/01 11:13:36;;;;;;;24.30;13.57;;;;;;;;;;5053915;28;20711;-58
2022/01/01 11:16:02;;;;;;;21.42;12.68;;;;;;;;;;5053458;28;20044;-58
2022/01/01 11:18:28;;;;;;;18.88;12.35;;;;;;;;;;5051198;28;20036;-60
2022/01/01 11:20:56;;;;;;;25.17;12.95;;;;;;;;;;5054773;28;20065;-54
2022/01/01 11:23:22;;;;;;;23.15;12.40;;;;;;;;;;5049528;28;20110;-55
2022/01/01 11:25:48;;;;;;;24.75;14.00;;;;;;;;;;5054717;28;20536;-55
2022/01/01 11:28:16;;;;;;;18.90;13.00;;;;;;;;;;5051399;28;20072;-59
2022/01/01 11:30:50;;;;;;;28.08;12.63;;;;;;;;;;5047646;28;20045;-53
2022/01/01 11:33:18;;;;;;;23.83;12.13;;;;;;;;;;5052716;28;20045;-60
2022/01/01 11:35:46;;;;;;;19.55;12.52;;;;;;;;;;5048478;28;20122;-56
2022/01/01 11:38:14;;;;;;;24.05;13.25;;;;;;;;;;5056981;28;20051;-59
2022/01/01 11:40:57;;;;;;;23.90;12.02;;;;;;;;;;5053447;28;20580;-59
2022/01/01 11:43:53;;;;;;;25.05;12.45;;;;;;;;;;5055300;28;20051;-59
2022/01/01 11:46:33;;;;;;;18.95;11.38;;;;;;;;;;5051863;28;20041;-56
2022/01/01 11:49:00;;;;;;;20.02;11.70;;;;;;;;;;5054698;28;20048;-60
2022/01/01 11:51:36;;;;;;;24.88;12.57;;;;;;;;;;5057459;28;20040;-57
2022/01/01 11:54:18;;;;;;;24.23;12.90;;;;;;;;;;5049702;28;20051;-55
2022/01/01 11:56:50;;;;;;;23.65;12.63;;;;;;;;;;5058028;28;20037;-55
2022/01/01 11:59:27;;;;;;;26.27;13.43;;;;;;;;;;5053525;28;20065;-60
2022/01/01 12:01:56;;;;;;;24.85;11.70;;;;;;;;;;5055691;28;20103;-57
2022/01/01 12:04:31;;;;;;;21.17;12.85;;;;;;;;;;5055595;28;20103;-55
2022/01/01 12:07:27;;;;;;;26.33;13.18;;;;;;;;;;5054546;28;20042;-60
2022/01/01 12:10:05;;;;;;;26.65;13.95;;;;;;;;;;5056673;28;20048;-55
2022/01/01 12:12:53;;;;;;;25.05;12.88;;;;;;;;;;5058758;28;20041;-59
2022/01/01 12:15:25;;;;;;;25.45;12.65;;;;;;;;;;5058199;28;20041;-59
2022/01/01 12:18:09;;;;;;;26.73;15.15;;;;;;;;;;5053903;28;20037;-56
2022/01/01 12:20:41;;;;;;;25.33;12.65;;;;;;;;;;5057354;28;20044;-58
2022/01/01 12:23:09;;;;;;;28.40;12.73;;;;;;;;;;5054190;28;20736;-56
2022/01/01 12:25:36;;;;;;;26.73;13.07;;;;;;;;;;5053936;28;20075;-58
2022/01/01 12:28:31;;;;;;;24.50;12.23;;;;;;;;;;5057043;28;20090;-58
2022/01/01 12:31:13;;;;;;;25.65;12.48;;;;;;;;;;5048431;28;20040;-55
2022/01/01 12:33:39;;;;;;;24.92;14.15;;;;;;;;;;5057350;28;20105;-60
2022/01/01 12:36:07;;;;;;;24.88;12.52;;;;;;;;;;5054466;28;20507;-59
2022/01/01 12:38:33;;;;;;;27.52;14.63;;;;;;;;;;5058592;28;20040;-59
2022/01/01 12:41:08;;;;;;;21.65;12.52;;;;;;;;;;5057394;28;20045;-54
2022/01/01 12:43:42;;;;;;;27.17;14.00;;;;;;;;;;5058963;28;20041;-59
2022/01/01 12:46:08;;;;;;;28.63;14.38;;;;;;;;;;5060871;28;20044;-58
2022/01/01 12:48:34;;;;;;;24.45;13.70;;;;;;;;;;5051132;28;20118;-56
2022/01/01 12:51:03;;;;;;;27.45;13.55;;;;;;;;;;5058315;28;20513;-59
2022/01/01 12:53:29;;;;;;;29.33;14.82;;;;;;;;;;5054031;28;20139;-59
2022/01/01 12:56:04;;;;;;;33.20;13.35;;;;;;;;;;5056036;28;20333;-60
2022/01/01 12:58:44;;;;;;;25.43;13.13;;;;;;;;;;5055459;28;20044;-59
2022/01/01 13:01:15;;;;;;;25.80;12.85;;;;;;;;;;5052551;28;20551;-60
2022/01/01 13:03:44;;;;;;;31.65;13.82;;;;;;;;;;5056737;28;20144;-57
2022/01/01 13:06:10;;;;;;;26.67;14.77;;;;;;;;;;5053057;28;20032;-55
2022/01/01 13:08:42;;;;;;;23.50;13.23;;;;;;;;;;5057001;28;20547;-54
2022/01/01 13:11:09;;;;;;;26.00;13.93;;;;;;;;;;5053821;28;20048;-53
2022/01/01 13:13:35;;;;;;;29.52;14.45;;;;;;;;;;5056037;28;20052;-59
2022/01/01 13:16:01;;;;;;;28.60;14.55;;;;;;;;;;5057310;28;20039;-54
2022/01/01 13:18:27;;;;;;;25.73;14.68;;;;;;;;;;5051268;28;20133;-56
2022/01/01 13:20:54;;;;;;;29.67;14.93;;;;;;;;;;5058845;28;20037;-57
2022/01/01 13:23:22;;;;;;;28.23;14.07;;;;;;;;;;5052721;28;20531;-57
2022/01/01 13:25:47;;;;;;;34.20;15.25;;;;;;;;;;5052640;28;20045;-60
2022/01/01 13:28:14;;;;;;;29.27;14.25;;;;;;;;;;5056254;28;20125;-58
2022/01/01 13:30:41;;;;;;;29.90;14.75;;;;;;;;;;5050321;28;20056;-59
2022/01/01 13:33:07;;;;;;;28.38;14.10;;;;;;;;;;5055087;28;20040;-58
2022/01/01 13:35:33;;;;;;;28.05;14.60;;;;;;;;;;5053005;28;20036;-58
2022/01/01 13:37:59;;;;;;;30.77;15.13;;;;;;;;;;5052433;28;20113;-55
2022/01/01 13:40:24;;;;;;;27.58;14.88;;;;;;;;;;5055493;28;20069;-56
2022/01/01 13:42:50;;;;;;;24.92;15.27;;;;;;;;;;5051706;28;20068;-54
2022/01/01 13:45:16;;;;;;;28.88;14.63;;;;;;;;;;5056866;28;20041;-55
2022/01/01 13:47:41;;;;;;;29.15;15.02;;;;;;;;;;5052015;28;20381;-57
2022/01/01 13:50:19;;;;;;;29.02;13.95;;;;;;;;;;5051559;28;20094;-54
2022/01/01 13:52:57;;;;;;;28.05;14.32;;;;;;;;;;5054801;28;20025;-55
2022/01/01 13:55:26;;;;;;;27.00;14.57;;;;;;;;;;5050153;28;20052;-54
2022/01/01 13:57:53;;;;;;;30.65;16.40;;;;;;;;;;5057197;28;20041;-57
2022/01/01 14:00:19;;;;;;;26.35;17.05;;;;;;;;;;5051313;28;20095;-56
2022/01/01 14:02:45;;;;;;;39.72;21.30;;;;;;;;;;5053184;28;20044;-56
2022/01/01 14:05:15;;;;;;;32.30;18.08;;;;;;;;;;5054339;28;20044;-55
2022/01/01 14:07:41;;;;;;;26.27;14.82;;;;;;;;;;5049101;28;20033;-60
2022/01/01 14:10:10;;;;;;;26.70;16.50;;;;;;;;;;5057182;28;20068;-54
2022/01/01 14:12:38;;;;;;;29.23;16.17;;;;;;;;;;5050990;28;20037;-58
2022/01/01 14:15:11;;;;;;;28.60;16.08;;;;;;;;;;5054097;28;20029;-57
2022/01/01 14:18:03;;;;;;;28.40;14.85;;;;;;;;;;5052447;28;20559;-60
2022/01/01 14:20:32;;;;;;;27.50;13.63;;;;;;;;;;5060516;28;20056;-58
2022/01/01 14:22:59;;;;;;;23.50;14.02;;;;;;;;;;5055222;28;20037;-56
2022/01/01 14:25:27;;;;;;;28.10;14.02;;;;;;;;;;5050184;28;20532;-60